createdAt,value
2023-08-15T00:00:27.841Z,95.88
2023-08-15T00:02:54.787Z,96.06
2023-08-15T00:05:21.771Z,96.19
2023-08-15T00:07:49.682Z,96.23
2023-08-15T00:10:16.656Z,96.53
2023-08-15T00:12:44.446Z,96.59
2023-08-15T00:15:11.689Z,96.81
2023-08-15T00:17:39.489Z,96.98
2023-08-15T00:20:07.967Z,96.88
2023-08-15T00:22:34.778Z,97.34
2023-08-15T00:25:01.596Z,97.37
2023-08-15T00:27:28.435Z,97.35
2023-08-15T00:29:55.140Z,97.59
2023-08-15T00:32:21.987Z,97.91
2023-08-15T00:34:49.824Z,97.86
2023-08-15T00:37:16.634Z,97.97
2023-08-15T00:39:43.503Z,98.11
2023-08-15T00:42:10.273Z,97.97
2023-08-15T00:44:42.130Z,98.10
2023-08-15T00:47:08.938Z,97.84
2023-08-15T00:49:35.761Z,98.08
2023-08-15T00:52:03.257Z,97.97
2023-08-15T00:54:30.127Z,98.02
2023-08-15T00:56:56.923Z,98.31
2023-08-15T00:59:23.790Z,98.80
2023-08-15T01:01:50.680Z,98.57
2023-08-15T01:04:18.553Z,98.86
2023-08-15T01:06:46.340Z,99.06
2023-08-15T01:09:14.160Z,99.09
2023-08-15T01:12:07.330Z,99.31
2023-08-15T01:14:55.184Z,99.39
2023-08-15T01:17:28.498Z,99.66
2023-08-15T01:19:56.362Z,99.84
2023-08-15T01:22:24.882Z,100.00
2023-08-15T01:24:51.764Z,100.00
2023-08-15T01:27:18.746Z,100.00
2023-08-15T01:29:45.732Z,100.00
2023-08-15T01:32:35.330Z,100.00
2023-08-15T01:35:22.462Z,100.00
2023-08-15T01:37:52.330Z,100.00
2023-08-15T01:40:19.188Z,100.00
2023-08-15T01:42:46.001Z,100.00
2023-08-15T01:45:12.832Z,100.00
2023-08-15T01:47:39.642Z,100.00
2023-08-15T01:50:07.296Z,100.00
2023-08-15T01:52:34.207Z,100.00
2023-08-15T01:55:00.943Z,100.00
2023-08-15T01:57:27.774Z,100.00
2023-08-15T01:59:54.695Z,100.00
2023-08-15T02:02:22.401Z,100.00
2023-08-15T02:04:49.165Z,100.00
2023-08-15T02:07:16.054Z,100.00
2023-08-15T02:09:42.866Z,100.00
2023-08-15T02:12:09.754Z,100.00
2023-08-15T02:14:37.645Z,100.00
2023-08-15T02:17:04.416Z,100.00
2023-08-15T02:19:31.148Z,100.00
2023-08-15T02:21:57.926Z,100.00
2023-08-15T02:24:24.799Z,100.00
2023-08-15T02:26:52.636Z,100.00
2023-08-15T02:29:20.484Z,100.00
2023-08-15T02:31:52.270Z,100.00
2023-08-15T02:34:20.177Z,100.00
2023-08-15T02:36:49.700Z,100.00
2023-08-15T02:39:18.066Z,100.00
2023-08-15T02:41:44.875Z,100.00
2023-08-15T02:44:11.701Z,100.00
2023-08-15T02:46:38.618Z,100.00
2023-08-15T02:49:06.820Z,100.00
2023-08-15T02:51:33.671Z,100.00
2023-08-15T02:54:00.550Z,100.00
2023-08-15T02:56:27.248Z,100.00
2023-08-15T02:58:54.274Z,100.00
2023-08-15T03:01:22.734Z,100.00
2023-08-15T03:03:49.633Z,100.00
2023-08-15T03:06:16.530Z,100.00
2023-08-15T03:08:43.263Z,100.00
2023-08-15T03:11:10.046Z,100.00
2023-08-15T03:13:37.111Z,100.00
2023-08-15T03:16:04.130Z,100.00
2023-08-15T03:18:30.872Z,100.00
2023-08-15T03:20:58.216Z,100.00
2023-08-15T03:23:25.340Z,100.00
2023-08-15T03:25:59.294Z,100.00
2023-08-15T03:28:26.346Z,100.00
2023-08-15T03:30:53.285Z,100.00
2023-08-15T03:33:20.152Z,100.00
2023-08-15T03:35:47.759Z,100.00
2023-08-15T03:38:16.972Z,100.00
2023-08-15T03:40:48.266Z,100.00
2023-08-15T03:43:15.069Z,100.00
2023-08-15T03:45:41.949Z,100.00
2023-08-15T03:48:09.645Z,100.00
2023-08-15T03:50:37.030Z,100.00
2023-08-15T03:53:06.038Z,100.00
2023-08-15T03:55:32.868Z,100.00
2023-08-15T03:57:59.683Z,100.00
2023-08-15T04:00:26.437Z,100.00
2023-08-15T04:02:53.331Z,100.00
2023-08-15T04:05:21.221Z,100.00
2023-08-15T04:07:51.183Z,100.00
2023-08-15T04:10:18.316Z,100.00
2023-08-15T04:12:45.635Z,100.00
2023-08-15T04:15:13.492Z,100.00
2023-08-15T04:17:40.357Z,100.00
2023-08-15T04:20:08.580Z,100.00
2023-08-15T04:22:37.454Z,100.00
2023-08-15T04:25:04.516Z,100.00
2023-08-15T04:27:31.355Z,100.00
2023-08-15T04:29:59.218Z,100.00
2023-08-15T04:32:25.947Z,100.00
2023-08-15T04:34:52.888Z,100.00
2023-08-15T04:37:19.993Z,100.00
2023-08-15T04:39:46.976Z,100.00
2023-08-15T04:42:13.808Z,100.00
2023-08-15T04:44:40.473Z,100.00
2023-08-15T04:47:07.366Z,100.00
2023-08-15T04:49:34.982Z,100.00
2023-08-15T04:52:01.955Z,100.00
2023-08-15T04:54:28.840Z,100.00
2023-08-15T04:56:55.563Z,100.00
2023-08-15T04:59:22.304Z,100.00
2023-08-15T05:01:49.155Z,100.00
2023-08-15T05:04:15.903Z,100.00
2023-08-15T05:06:42.645Z,100.00
2023-08-15T05:09:09.362Z,100.00
2023-08-15T05:11:36.098Z,100.00
2023-08-15T05:14:03.006Z,100.00
2023-08-15T05:16:29.847Z,100.00
2023-08-15T05:18:56.711Z,100.00
2023-08-15T05:21:23.565Z,100.00
2023-08-15T05:23:50.323Z,100.00
2023-08-15T05:26:17.084Z,100.00
2023-08-15T05:28:46.017Z,100.00
2023-08-15T05:31:15.343Z,100.00
2023-08-15T05:33:42.051Z,100.00
2023-08-15T05:36:09.018Z,100.00
2023-08-15T05:38:38.343Z,100.00
2023-08-15T05:41:05.145Z,100.00
2023-08-15T05:43:32.908Z,100.00
2023-08-15T05:45:59.658Z,100.00
2023-08-15T05:48:26.404Z,100.00
2023-08-15T05:50:53.239Z,100.00
2023-08-15T05:53:21.049Z,100.00
2023-08-15T05:55:47.813Z,100.00
2023-08-15T05:58:14.538Z,100.00
2023-08-15T06:00:42.271Z,100.00
2023-08-15T06:03:09.297Z,100.00
2023-08-15T06:05:36.118Z,100.00
2023-08-15T06:08:02.934Z,100.00
2023-08-15T06:10:29.789Z,100.00
2023-08-15T06:12:56.573Z,100.00
2023-08-15T06:15:23.394Z,100.00
2023-08-15T06:17:50.110Z,100.00
2023-08-15T06:20:16.995Z,100.00
2023-08-15T06:22:43.737Z,100.00
2023-08-15T06:25:10.463Z,100.00
2023-08-15T06:27:37.262Z,100.00
2023-08-15T06:30:04.398Z,100.00
2023-08-15T06:32:31.999Z,100.00
2023-08-15T06:34:58.829Z,100.00
2023-08-15T06:37:25.604Z,100.00
2023-08-15T06:39:52.390Z,100.00
2023-08-15T06:42:19.106Z,100.00
2023-08-15T06:44:45.746Z,100.00
2023-08-15T06:47:12.616Z,100.00
2023-08-15T06:49:39.365Z,100.00
2023-08-15T06:52:08.269Z,100.00
2023-08-15T06:54:35.330Z,100.00
2023-08-15T06:57:02.083Z,100.00
2023-08-15T06:59:29.653Z,100.00
2023-08-15T07:01:56.412Z,100.00
2023-08-15T07:04:23.092Z,100.00
2023-08-15T07:06:49.854Z,100.00
2023-08-15T07:09:16.591Z,100.00
2023-08-15T07:11:43.314Z,100.00
2023-08-15T07:14:10.050Z,100.00
2023-08-15T07:16:36.761Z,100.00
2023-08-15T07:19:05.446Z,100.00
2023-08-15T07:21:32.258Z,100.00
2023-08-15T07:23:59.002Z,100.00
2023-08-15T07:26:25.703Z,100.00
2023-08-15T07:28:52.403Z,100.00
2023-08-15T07:31:19.193Z,100.00
2023-08-15T07:33:45.979Z,100.00
2023-08-15T07:36:12.645Z,100.00
2023-08-15T07:38:39.425Z,100.00
2023-08-15T07:41:06.299Z,100.00
2023-08-15T07:43:33.063Z,100.00
2023-08-15T07:46:00.884Z,100.00
2023-08-15T07:48:27.625Z,100.00
2023-08-15T07:50:54.886Z,100.00
2023-08-15T07:53:22.608Z,100.00
2023-08-15T07:55:49.374Z,100.00
2023-08-15T07:58:16.501Z,100.00
2023-08-15T08:00:43.867Z,100.00
2023-08-15T08:03:10.808Z,100.00
2023-08-15T08:05:37.574Z,100.00
2023-08-15T08:08:04.633Z,100.00
2023-08-15T08:10:31.439Z,99.71
2023-08-15T08:12:58.546Z,99.03
2023-08-15T08:15:25.257Z,98.12
2023-08-15T08:17:52.076Z,97.22
2023-08-15T08:20:19.509Z,95.30
2023-08-15T08:22:46.210Z,96.21
2023-08-15T08:25:24.056Z,95.04
2023-08-15T08:27:50.938Z,96.11
2023-08-15T08:30:19.032Z,94.91
2023-08-15T08:32:45.849Z,92.84
2023-08-15T08:35:12.820Z,92.41
2023-08-15T08:37:40.065Z,93.47
2023-08-15T08:40:08.279Z,92.97
2023-08-15T08:42:35.673Z,92.63
2023-08-15T08:45:04.201Z,93.18
2023-08-15T08:47:31.684Z,92.85
2023-08-15T08:50:01.229Z,92.54
2023-08-15T08:52:31.055Z,91.07
2023-08-15T08:54:58.012Z,90.52
2023-08-15T08:57:27.752Z,90.02
2023-08-15T08:59:56.372Z,89.93
2023-08-15T09:02:23.757Z,90.64
2023-08-15T09:04:50.570Z,92.35
2023-08-15T09:07:17.636Z,92.07
2023-08-15T09:09:44.531Z,92.14
2023-08-15T09:12:11.719Z,93.08
2023-08-15T09:14:42.085Z,93.70
2023-08-15T09:17:08.819Z,93.43
2023-08-15T09:19:41.724Z,93.40
2023-08-15T09:22:08.462Z,92.27
2023-08-15T09:24:35.322Z,92.38
2023-08-15T09:27:07.048Z,93.30
2023-08-15T09:29:35.168Z,91.26
2023-08-15T09:32:01.970Z,91.73
2023-08-15T09:34:28.712Z,91.66
2023-08-15T09:36:55.467Z,91.63
2023-08-15T09:39:22.545Z,92.02
2023-08-15T09:41:50.258Z,91.03
2023-08-15T09:44:30.617Z,90.83
2023-08-15T09:46:57.412Z,90.12
2023-08-15T09:49:24.452Z,90.51
2023-08-15T09:51:52.271Z,91.18
2023-08-15T09:54:19.347Z,90.51
2023-08-15T09:56:47.839Z,89.21
2023-08-15T09:59:16.478Z,87.17
2023-08-15T10:01:43.536Z,87.33
2023-08-15T10:04:11.845Z,86.21
2023-08-15T10:06:38.673Z,86.69
2023-08-15T10:09:06.442Z,84.45
2023-08-15T10:11:34.972Z,83.96
2023-08-15T10:14:01.797Z,86.15
2023-08-15T10:16:28.636Z,84.89
2023-08-15T10:18:55.832Z,84.59
2023-08-15T10:21:22.715Z,82.91
2023-08-15T10:23:53.157Z,82.14
2023-08-15T10:26:19.902Z,82.54
2023-08-15T10:28:46.936Z,82.76
2023-08-15T10:31:13.659Z,82.04
2023-08-15T10:33:43.233Z,82.15
2023-08-15T10:36:11.113Z,83.22
2023-08-15T10:38:42.377Z,84.23
2023-08-15T10:41:19.217Z,84.66
2023-08-15T10:43:50.986Z,85.05
2023-08-15T10:46:20.182Z,84.72
2023-08-15T10:51:26.112Z,80.22
2023-08-15T10:53:57.615Z,82.54
2023-08-15T10:56:25.838Z,80.16
2023-08-15T10:58:53.605Z,80.03
2023-08-15T11:01:21.421Z,81.74
2023-08-15T11:03:49.095Z,80.50
2023-08-15T11:06:15.967Z,80.37
2023-08-15T11:08:50.964Z,79.63
2023-08-15T11:11:17.890Z,79.68
2023-08-15T11:13:48.452Z,78.87
2023-08-15T11:16:17.045Z,76.08
2023-08-15T11:18:44.106Z,75.77
2023-08-15T11:21:12.566Z,77.37
2023-08-15T11:23:39.762Z,79.46
2023-08-15T11:26:11.087Z,78.22
2023-08-15T11:28:38.247Z,76.05
2023-08-15T11:33:44.811Z,74.95
2023-08-15T11:36:11.617Z,74.90
2023-08-15T11:38:39.733Z,73.37
2023-08-15T11:41:06.747Z,74.71
2023-08-15T11:43:34.398Z,74.87
2023-08-15T11:46:04.840Z,74.92
2023-08-15T11:48:32.615Z,74.14
2023-08-15T11:50:59.615Z,70.90
2023-08-15T11:53:26.573Z,72.29
2023-08-15T12:18:31.649Z,69.04
2023-08-15T12:20:58.673Z,69.73
2023-08-15T12:23:28.604Z,70.44
2023-08-15T12:25:56.281Z,70.65
2023-08-15T12:28:23.276Z,71.92
2023-08-15T12:30:50.281Z,72.17
2023-08-15T12:33:27.506Z,73.52
2023-08-15T12:36:04.447Z,73.07
2023-08-15T12:38:31.402Z,73.76
2023-08-15T12:40:58.419Z,71.50
2023-08-15T12:43:25.356Z,72.05
2023-08-15T12:45:52.416Z,71.66
2023-08-15T12:48:23.460Z,71.47
2023-08-15T12:50:50.781Z,71.85
2023-08-15T12:53:17.770Z,72.53
2023-08-15T12:55:46.706Z,71.81
2023-08-15T12:58:13.829Z,72.46
2023-08-15T13:00:42.896Z,71.08
2023-08-15T13:03:10.731Z,71.99
2023-08-15T13:05:37.815Z,70.41
2023-08-15T13:08:05.092Z,70.36
2023-08-15T13:10:32.005Z,70.53
2023-08-15T13:12:58.967Z,70.22
2023-08-15T13:15:25.965Z,69.66
2023-08-15T13:17:53.105Z,70.71
2023-08-15T13:20:20.016Z,70.95
2023-08-15T13:22:46.945Z,71.08
2023-08-15T13:25:13.736Z,71.79
2023-08-15T13:27:40.376Z,72.02
2023-08-15T13:30:08.704Z,73.02
2023-08-15T13:32:35.699Z,73.43
2023-08-15T13:35:02.484Z,74.31
2023-08-15T13:37:29.440Z,74.82
2023-08-15T13:39:58.754Z,75.57
2023-08-15T13:42:37.423Z,75.31
2023-08-15T13:45:09.523Z,76.08
2023-08-15T13:47:39.255Z,74.81
2023-08-15T13:50:07.025Z,74.39
2023-08-15T13:52:34.047Z,74.75
2023-08-15T13:55:05.846Z,73.18
2023-08-15T13:57:33.812Z,73.89
2023-08-15T14:00:00.601Z,75.28
2023-08-15T14:02:27.239Z,76.35
2023-08-15T14:04:55.094Z,76.13
2023-08-15T14:07:22.299Z,77.74
2023-08-15T14:09:53.086Z,78.19
2023-08-15T14:12:23.873Z,79.09
2023-08-15T14:14:50.915Z,79.89
2023-08-15T14:17:17.905Z,78.27
2023-08-15T14:19:44.626Z,78.36
2023-08-15T14:22:11.250Z,78.04
2023-08-15T14:24:39.007Z,76.83
2023-08-15T14:27:06.196Z,77.48
2023-08-15T14:29:33.013Z,77.80
2023-08-15T14:32:00.957Z,78.48
2023-08-15T14:34:28.713Z,77.89
2023-08-15T14:36:55.418Z,78.98
2023-08-15T14:39:22.147Z,79.38
2023-08-15T14:41:50.708Z,77.77
2023-08-15T14:44:18.416Z,77.64
2023-08-15T14:46:47.262Z,76.69
2023-08-15T14:49:13.995Z,76.31
2023-08-15T14:51:40.642Z,76.43
2023-08-15T14:54:07.376Z,74.87
2023-08-15T14:56:34.212Z,75.35
2023-08-15T14:59:01.920Z,75.17
2023-08-15T15:01:28.699Z,75.08
2023-08-15T15:03:56.824Z,75.94
2023-08-15T15:06:23.835Z,76.75
2023-08-15T15:08:50.704Z,77.44
2023-08-15T15:11:17.403Z,77.00
2023-08-15T15:13:45.754Z,76.72
2023-08-15T15:16:16.532Z,75.22
2023-08-15T15:18:43.861Z,74.14
2023-08-15T15:21:10.552Z,74.33
2023-08-15T15:23:37.219Z,74.54
2023-08-15T15:26:03.956Z,73.07
2023-08-15T15:28:30.783Z,72.99
2023-08-15T15:30:58.462Z,71.73
2023-08-15T15:33:27.042Z,72.70
2023-08-15T15:35:53.888Z,73.13
2023-08-15T15:38:20.763Z,74.61
2023-08-15T15:40:48.480Z,73.61
2023-08-15T15:43:16.192Z,73.10
2023-08-15T15:45:44.028Z,73.09
2023-08-15T15:48:10.839Z,72.90
2023-08-15T15:50:37.680Z,74.68
2023-08-15T15:53:05.938Z,74.83
2023-08-15T15:55:32.636Z,74.20
2023-08-15T15:58:01.399Z,73.54
2023-08-15T16:00:28.026Z,73.54
2023-08-15T16:02:54.736Z,73.62
2023-08-15T16:05:21.391Z,72.50
2023-08-15T16:07:47.979Z,72.49
2023-08-15T16:10:14.658Z,73.49
2023-08-15T16:12:41.284Z,72.70
2023-08-15T16:15:08.551Z,72.74
2023-08-15T16:17:35.568Z,72.30
2023-08-15T16:20:03.026Z,72.74
2023-08-15T16:22:29.623Z,73.11
2023-08-15T16:24:56.379Z,73.46
2023-08-15T16:27:23.126Z,74.33
2023-08-15T16:29:50.666Z,73.92
2023-08-15T16:32:19.072Z,74.06
2023-08-15T16:34:45.710Z,74.17
2023-08-15T16:37:12.538Z,74.20
2023-08-15T16:39:39.178Z,75.11
2023-08-15T16:42:05.918Z,74.30
2023-08-15T16:44:32.871Z,73.57
2023-08-15T16:46:59.529Z,73.05
2023-08-15T16:49:26.284Z,73.54
2023-08-15T16:51:53.034Z,74.20
2023-08-15T16:54:19.719Z,72.61
2023-08-15T16:56:46.275Z,71.83
2023-08-15T16:59:12.936Z,72.10
2023-08-15T17:01:39.563Z,73.04
2023-08-15T17:04:06.476Z,73.80
2023-08-15T17:06:33.246Z,73.45
2023-08-15T17:08:59.906Z,73.60
2023-08-15T17:11:26.856Z,74.97
2023-08-15T17:13:53.954Z,74.85
2023-08-15T17:16:20.692Z,74.65
2023-08-15T17:18:47.404Z,74.63
2023-08-15T17:21:14.092Z,74.92
2023-08-15T17:23:40.771Z,75.29
2023-08-15T17:26:07.459Z,75.30
2023-08-15T17:28:34.129Z,75.55
2023-08-15T17:31:01.112Z,75.98
2023-08-15T17:33:28.040Z,76.46
2023-08-15T17:35:54.698Z,76.69
2023-08-15T17:38:21.381Z,76.75
2023-08-15T17:40:48.040Z,77.74
2023-08-15T17:43:14.704Z,77.64
2023-08-15T17:45:42.000Z,77.59
2023-08-15T17:48:09.889Z,77.94
2023-08-15T17:50:36.770Z,78.20
2023-08-15T17:53:03.460Z,77.89
2023-08-15T17:55:30.709Z,77.45
2023-08-15T17:57:57.446Z,76.60
2023-08-15T18:00:24.203Z,76.57
2023-08-15T18:02:50.995Z,77.18
2023-08-15T18:05:17.812Z,77.47
2023-08-15T18:07:44.515Z,77.91
2023-08-15T18:10:11.249Z,77.53
2023-08-15T18:12:37.954Z,78.68
2023-08-15T18:15:05.047Z,78.81
2023-08-15T18:17:31.884Z,78.56
2023-08-15T18:19:58.617Z,79.01
2023-08-15T18:22:25.449Z,78.63
2023-08-15T18:24:52.144Z,79.20
2023-08-15T18:27:20.833Z,79.51
2023-08-15T18:29:47.896Z,78.78
2023-08-15T18:32:14.491Z,79.23
2023-08-15T18:34:41.253Z,79.25
2023-08-15T18:37:07.871Z,79.53
2023-08-15T18:39:34.566Z,79.87
2023-08-15T18:42:01.257Z,79.95
2023-08-15T18:44:28.091Z,80.91
2023-08-15T18:46:54.743Z,81.39
2023-08-15T18:49:21.426Z,81.51
2023-08-15T18:51:48.123Z,81.71
2023-08-15T18:54:14.759Z,81.86
2023-08-15T18:56:41.417Z,81.72
2023-08-15T18:59:08.078Z,81.77
2023-08-15T19:01:34.734Z,81.78
2023-08-15T19:04:01.416Z,82.11
2023-08-15T19:06:28.083Z,82.25
2023-08-15T19:08:54.730Z,82.27
2023-08-15T19:11:21.290Z,82.24
2023-08-15T19:13:48.015Z,82.37
2023-08-15T19:16:14.677Z,82.19
2023-08-15T19:18:41.450Z,81.91
2023-08-15T19:21:08.433Z,81.86
2023-08-15T19:23:35.177Z,81.48
2023-08-15T19:26:01.789Z,81.45
2023-08-15T19:28:28.486Z,80.97
2023-08-15T19:30:55.283Z,81.48
2023-08-15T19:33:21.855Z,81.34
2023-08-15T19:35:48.546Z,81.32
2023-08-15T19:38:15.135Z,81.40
2023-08-15T19:40:42.637Z,81.46
2023-08-15T19:43:09.276Z,81.51
2023-08-15T19:45:35.897Z,81.57
2023-08-15T19:48:02.584Z,81.86
2023-08-15T19:50:30.392Z,81.82
2023-08-15T19:52:57.272Z,81.85
2023-08-15T19:55:23.992Z,81.96
2023-08-15T19:57:50.687Z,81.79
2023-08-15T20:00:18.207Z,82.12
2023-08-15T20:02:45.337Z,82.23
2023-08-15T20:05:12.090Z,82.54
2023-08-15T20:07:39.079Z,82.53
2023-08-15T20:10:11.453Z,83.05
2023-08-15T20:12:39.128Z,83.55
2023-08-15T20:15:06.253Z,83.71
2023-08-15T20:17:32.982Z,84.17
2023-08-15T20:19:59.857Z,84.64
2023-08-15T20:22:26.996Z,84.93
2023-08-15T20:24:54.129Z,85.60
2023-08-15T20:27:20.891Z,86.02
2023-08-15T20:29:47.737Z,86.31
2023-08-15T20:32:14.497Z,86.63
2023-08-15T20:34:41.301Z,86.88
2023-08-15T20:37:08.053Z,87.10
2023-08-15T20:39:35.082Z,87.35
2023-08-15T20:42:01.853Z,87.63
2023-08-15T20:44:28.590Z,87.93
2023-08-15T20:46:56.178Z,88.04
2023-08-15T20:49:23.135Z,88.28
2023-08-15T20:51:50.322Z,88.59
2023-08-15T20:54:17.096Z,88.84
2023-08-15T20:56:43.783Z,89.01
2023-08-15T20:59:10.396Z,89.29
2023-08-15T21:01:37.001Z,89.46
2023-08-15T21:04:03.844Z,89.90
2023-08-15T21:06:30.562Z,90.26
2023-08-15T21:08:57.237Z,90.29
2023-08-15T21:11:23.908Z,90.46
2023-08-15T21:13:50.506Z,90.56
2023-08-15T21:16:17.161Z,90.41
2023-08-15T21:18:43.818Z,90.42
2023-08-15T21:21:10.447Z,90.80
2023-08-15T21:23:37.075Z,90.67
2023-08-15T21:26:03.734Z,90.64
2023-08-15T21:28:30.331Z,90.91
2023-08-15T21:30:57.095Z,91.03
2023-08-15T21:33:23.976Z,91.09
2023-08-15T21:35:53.662Z,91.18
2023-08-15T21:38:21.798Z,91.10
2023-08-15T21:40:49.254Z,91.25
2023-08-15T21:43:17.196Z,91.36
2023-08-15T21:45:45.667Z,91.60
2023-08-15T21:48:12.478Z,91.98
2023-08-15T21:50:39.183Z,92.28
2023-08-15T21:53:06.281Z,92.52
2023-08-15T21:55:33.113Z,92.87
2023-08-15T21:57:59.804Z,93.04
2023-08-15T22:00:28.166Z,93.43
2023-08-15T22:02:58.066Z,93.64
2023-08-15T22:05:26.051Z,93.80
2023-08-15T22:07:53.261Z,94.19
2023-08-15T22:10:21.973Z,94.42
2023-08-15T22:12:50.143Z,94.75
2023-08-15T22:15:18.141Z,94.83
2023-08-15T22:17:48.979Z,95.23
2023-08-15T22:20:21.444Z,95.37
2023-08-15T22:22:49.534Z,95.50
2023-08-15T22:25:21.165Z,95.53
2023-08-15T22:27:49.945Z,95.33
2023-08-15T22:30:16.812Z,95.45
2023-08-15T22:32:43.549Z,95.46
2023-08-15T22:35:10.636Z,95.46
2023-08-15T22:37:37.384Z,95.73
2023-08-15T22:40:04.926Z,95.77
2023-08-15T22:42:32.395Z,95.93
2023-08-15T22:45:01.086Z,95.91
2023-08-15T22:47:27.884Z,96.36
2023-08-15T22:49:54.632Z,96.29
2023-08-15T22:52:21.401Z,96.36
2023-08-15T22:54:51.726Z,96.49
2023-08-15T22:57:21.023Z,96.57
2023-08-15T22:59:47.981Z,96.73
2023-08-15T23:02:15.768Z,96.62
2023-08-15T23:04:43.739Z,96.62
2023-08-15T23:07:10.518Z,96.75
2023-08-15T23:09:37.242Z,97.03
2023-08-15T23:12:04.651Z,96.90
2023-08-15T23:14:33.370Z,96.96
2023-08-15T23:17:00.253Z,97.18
2023-08-15T23:19:27.011Z,97.27
2023-08-15T23:21:53.758Z,97.51
2023-08-15T23:24:20.518Z,97.49
2023-08-15T23:26:47.181Z,97.65
2023-08-15T23:29:13.923Z,97.68
2023-08-15T23:31:41.641Z,97.96
2023-08-15T23:34:08.324Z,97.86
2023-08-15T23:36:35.273Z,97.97
2023-08-15T23:39:02.551Z,97.90
2023-08-15T23:41:30.370Z,98.24
2023-08-15T23:43:57.044Z,98.36
2023-08-15T23:46:27.082Z,98.48
2023-08-15T23:48:53.868Z,98.66
2023-08-15T23:51:22.675Z,98.80
2023-08-15T23:53:51.381Z,99.03
2023-08-15T23:56:18.081Z,99.00
2023-08-15T23:58:46.201Z,99.14
